createdAt,value
2023-04-25T00:01:10.943Z,104
2023-04-25T00:02:10.553Z,104
2023-04-25T00:03:11.489Z,104
2023-04-25T00:04:12.242Z,104
2023-04-25T00:05:12.649Z,104
2023-04-25T00:06:10.109Z,104
2023-04-25T00:07:10.801Z,107
2023-04-25T00:08:11.085Z,107
2023-04-25T00:09:11.176Z,107
2023-04-25T00:10:10.206Z,107
2023-04-25T00:11:10.708Z,107
2023-04-25T00:12:11.168Z,107
2023-04-25T00:13:10.276Z,107
2023-04-25T00:14:10.438Z,107
2023-04-25T00:15:10.979Z,107
2023-04-25T00:18:10.981Z,107
2023-04-25T00:19:11.072Z,107
2023-04-25T00:20:11.301Z,107
2023-04-25T00:21:10.532Z,107
2023-04-25T00:22:10.510Z,107
2023-04-25T00:23:10.995Z,107
2023-04-25T00:24:10.365Z,107
2023-04-25T00:25:10.826Z,107
2023-04-25T00:26:10.936Z,107
2023-04-25T00:27:11.212Z,107
2023-04-25T00:28:10.580Z,107
2023-04-25T00:31:10.405Z,107
2023-04-25T00:32:10.847Z,107
2023-04-25T00:33:10.820Z,107
2023-04-25T00:34:10.784Z,107
2023-04-25T00:35:11.249Z,107
2023-04-25T00:40:10.425Z,107
2023-04-25T00:41:10.408Z,107
2023-04-25T00:42:10.811Z,107
2023-04-25T00:43:10.863Z,107
2023-04-25T00:47:10.645Z,107
2023-04-25T00:48:10.966Z,107
2023-04-25T00:49:10.975Z,107
2023-04-25T00:50:11.200Z,107
2023-04-25T00:51:10.505Z,107
2023-04-25T00:52:10.788Z,107
2023-04-25T00:53:11.066Z,107
2023-04-25T00:54:10.994Z,107
2023-04-25T00:58:10.436Z,107
2023-04-25T00:59:10.693Z,107
2023-04-25T01:00:10.623Z,107
2023-04-25T01:01:11.541Z,107
2023-04-25T01:02:10.741Z,107
2023-04-25T01:03:11.346Z,107
2023-04-25T01:04:11.559Z,107
2023-04-25T01:05:10.576Z,107
2023-04-25T01:09:10.253Z,104
2023-04-25T01:10:10.831Z,104
2023-04-25T01:11:10.965Z,104
2023-04-25T01:12:11.311Z,104
2023-04-25T01:13:10.389Z,104
2023-04-25T01:14:10.522Z,104
2023-04-25T01:15:10.943Z,104
2023-04-25T01:16:11.452Z,104
2023-04-25T01:17:10.933Z,104
2023-04-25T01:18:11.109Z,104
2023-04-25T01:19:11.136Z,104
2023-04-25T01:20:10.366Z,104
2023-04-25T01:21:10.659Z,104
2023-04-25T01:22:10.913Z,104
2023-04-25T01:23:10.419Z,104
2023-04-25T01:24:10.434Z,104
2023-04-25T01:25:10.801Z,104
2023-04-25T01:26:10.922Z,104
2023-04-25T01:27:10.278Z,104
2023-04-25T01:28:10.604Z,104
2023-04-25T01:29:11.087Z,104
2023-04-25T01:32:10.999Z,104
2023-04-25T01:33:10.995Z,104
2023-04-25T01:34:11.370Z,104
2023-04-25T01:35:10.499Z,104
2023-04-25T01:36:10.720Z,104
2023-04-25T01:37:10.921Z,104
2023-04-25T01:38:11.111Z,104
2023-04-25T01:39:10.655Z,104
2023-04-25T01:40:10.602Z,104
2023-04-25T01:41:10.693Z,104
2023-04-25T01:42:10.928Z,104
2023-04-25T01:43:11.116Z,104
2023-04-25T01:44:10.227Z,104
2023-04-25T01:45:10.392Z,104
2023-04-25T01:46:11.201Z,104
2023-04-25T01:49:10.509Z,104
2023-04-25T01:50:10.855Z,104
2023-04-25T01:51:11.187Z,104
2023-04-25T01:52:10.487Z,104
2023-04-25T01:53:10.571Z,104
2023-04-25T01:54:10.937Z,104
2023-04-25T01:55:10.863Z,104
2023-04-25T01:56:11.034Z,104
2023-04-25T01:57:10.364Z,104
2023-04-25T01:58:10.696Z,104
2023-04-25T01:59:10.917Z,104
2023-04-25T02:00:11.202Z,104
2023-04-25T02:01:10.553Z,104
2023-04-25T02:02:10.712Z,104
2023-04-25T02:03:11.662Z,104
2023-04-25T02:04:12.141Z,104
2023-04-25T02:07:10.575Z,104
2023-04-25T02:08:10.705Z,104
2023-04-25T02:09:11.022Z,104
2023-04-25T02:10:10.262Z,104
2023-04-25T02:11:10.839Z,104
2023-04-25T02:12:11.093Z,104
2023-04-25T02:13:10.391Z,104
2023-04-25T02:14:10.513Z,104
2023-04-25T02:15:10.902Z,104
2023-04-25T02:16:11.528Z,104
2023-04-25T02:17:10.898Z,104
2023-04-25T02:21:10.877Z,104
2023-04-25T02:22:10.996Z,104
2023-04-25T02:23:11.108Z,104
2023-04-25T02:24:10.652Z,104
2023-04-25T02:25:10.707Z,104
2023-04-25T02:26:11.043Z,104
2023-04-25T02:27:11.202Z,104
2023-04-25T02:28:10.402Z,104
2023-04-25T02:29:10.716Z,104
2023-04-25T02:30:10.830Z,104
2023-04-25T02:31:11.283Z,104
2023-04-25T02:32:10.384Z,104
2023-04-25T02:33:10.909Z,104
2023-04-25T02:34:10.946Z,104
2023-04-25T02:35:11.253Z,104
2023-04-25T02:36:10.360Z,104
2023-04-25T02:37:10.676Z,104
2023-04-25T02:38:11.057Z,104
2023-04-25T02:39:11.218Z,104
2023-04-25T02:44:10.492Z,104
2023-04-25T02:45:10.730Z,104
2023-04-25T02:46:10.906Z,104
2023-04-25T02:47:11.252Z,104
2023-04-25T02:48:11.169Z,104
2023-04-25T02:49:10.888Z,104
2023-04-25T02:50:11.121Z,104
2023-04-25T02:51:10.530Z,104
2023-04-25T02:54:10.900Z,104
2023-04-25T02:55:10.178Z,104
2023-04-25T02:56:10.558Z,104
2023-04-25T02:57:10.957Z,104
2023-04-25T02:58:11.174Z,104
2023-04-25T02:59:10.183Z,104
2023-04-25T03:00:10.633Z,104
2023-04-25T03:01:10.844Z,104
2023-04-25T03:04:10.291Z,104
2023-04-25T03:05:10.524Z,104
2023-04-25T03:06:10.797Z,104
2023-04-25T03:07:10.976Z,104
2023-04-25T03:08:11.263Z,104
2023-04-25T03:10:10.638Z,104
2023-04-25T03:11:10.855Z,104
2023-04-25T03:16:10.540Z,104
2023-04-25T03:17:10.814Z,104
2023-04-25T03:18:10.734Z,104
2023-04-25T03:19:11.221Z,104
2023-04-25T03:20:10.277Z,104
2023-04-25T03:21:10.903Z,104
2023-04-25T03:22:11.013Z,104
2023-04-25T03:24:10.177Z,104
2023-04-25T03:25:10.688Z,104
2023-04-25T03:26:11.069Z,104
2023-04-25T03:27:10.225Z,104
2023-04-25T03:28:10.604Z,104
2023-04-25T03:29:10.921Z,104
2023-04-25T03:30:11.206Z,104
2023-04-25T03:31:10.348Z,104
2023-04-25T03:32:10.881Z,104
2023-04-25T03:33:11.108Z,104
2023-04-25T03:35:10.495Z,104
2023-04-25T03:36:10.683Z,104
2023-04-25T03:37:11.149Z,104
2023-04-25T03:38:11.197Z,104
2023-04-25T03:39:10.649Z,104
2023-04-25T03:40:10.648Z,104
2023-04-25T03:41:10.526Z,104
2023-04-25T03:42:10.951Z,104
2023-04-25T03:43:11.015Z,104
2023-04-25T03:44:10.231Z,104
2023-04-25T03:45:10.595Z,104
2023-04-25T03:46:10.529Z,104
2023-04-25T03:47:10.857Z,104
2023-04-25T03:48:10.975Z,104
2023-04-25T03:49:11.154Z,104
2023-04-25T03:50:10.463Z,104
2023-04-25T03:51:10.598Z,104
2023-04-25T03:52:10.829Z,104
2023-04-25T03:53:11.100Z,104
2023-04-25T03:54:11.141Z,104
2023-04-25T03:55:10.529Z,104
2023-04-25T03:56:10.570Z,104
2023-04-25T03:57:10.763Z,104
2023-04-25T03:58:11.188Z,104
2023-04-25T04:03:11.122Z,104
2023-04-25T04:04:12.009Z,104
2023-04-25T04:06:11.443Z,104
2023-04-25T04:07:10.374Z,104
2023-04-25T04:08:10.784Z,104
2023-04-25T04:09:11.015Z,104
2023-04-25T04:10:11.358Z,104
2023-04-25T04:11:10.613Z,104
2023-04-25T04:12:10.963Z,104
2023-04-25T04:13:10.363Z,104
2023-04-25T04:14:10.655Z,104
2023-04-25T04:15:10.906Z,104
2023-04-25T04:16:11.201Z,104
2023-04-25T04:17:10.283Z,104
2023-04-25T04:18:10.811Z,104
2023-04-25T04:19:11.006Z,104
2023-04-25T04:20:11.228Z,104
2023-04-25T04:21:10.477Z,104
2023-04-25T04:22:10.779Z,104
2023-04-25T04:23:10.907Z,104
2023-04-25T04:28:10.402Z,104
2023-04-25T04:29:10.528Z,104
2023-04-25T04:30:11.184Z,104
2023-04-25T04:31:11.378Z,104
2023-04-25T04:32:10.326Z,104
2023-04-25T04:33:10.623Z,104
2023-04-25T04:34:10.857Z,104
2023-04-25T04:37:10.390Z,104
2023-04-25T04:38:10.898Z,104
2023-04-25T04:39:11.033Z,104
2023-04-25T04:40:10.177Z,104
2023-04-25T04:41:10.825Z,104
2023-04-25T04:42:11.044Z,104
2023-04-25T04:43:10.332Z,104
2023-04-25T04:44:12.621Z,104
2023-04-25T04:45:10.942Z,104
2023-04-25T04:46:11.462Z,104
2023-04-25T04:49:10.971Z,104
2023-04-25T04:50:11.372Z,104
2023-04-25T04:51:10.568Z,104
2023-04-25T04:52:10.748Z,104
2023-04-25T04:53:10.868Z,104
2023-04-25T04:54:11.158Z,104
2023-04-25T04:55:10.147Z,104
2023-04-25T04:56:11.118Z,104
2023-04-25T05:00:10.554Z,104
2023-04-25T05:01:10.644Z,104
2023-04-25T05:02:10.996Z,104
2023-04-25T05:03:12.240Z,104
2023-04-25T05:04:11.485Z,104
2023-04-25T05:05:10.633Z,104
2023-04-25T05:06:11.038Z,104
2023-04-25T05:07:11.110Z,102
2023-04-25T05:08:10.226Z,102
2023-04-25T05:09:10.695Z,102
2023-04-25T05:10:10.909Z,102
2023-04-25T05:11:10.583Z,102
2023-04-25T05:12:10.897Z,102
2023-04-25T05:13:11.303Z,102
2023-04-25T05:18:10.483Z,102
2023-04-25T05:19:10.739Z,102
2023-04-25T05:20:11.028Z,102
2023-04-25T05:21:10.560Z,102
2023-04-25T05:22:10.949Z,102
2023-04-25T05:23:11.101Z,102
2023-04-25T05:24:10.360Z,102
2023-04-25T05:25:10.625Z,102
2023-04-25T05:26:10.857Z,102
2023-04-25T05:27:11.246Z,102
2023-04-25T05:28:10.290Z,102
2023-04-25T05:29:10.645Z,102
2023-04-25T05:30:11.155Z,102
2023-04-25T05:31:10.677Z,102
2023-04-25T05:32:11.210Z,102
2023-04-25T05:33:11.515Z,102
2023-04-25T05:34:10.284Z,102
2023-04-25T05:35:10.719Z,102
2023-04-25T05:36:11.011Z,102
2023-04-25T05:37:11.328Z,102
2023-04-25T05:41:11.144Z,102
2023-04-25T05:42:11.317Z,102
2023-04-25T05:43:10.412Z,102
2023-04-25T05:44:10.549Z,102
2023-04-25T05:45:11.080Z,102
2023-04-25T05:46:10.482Z,102
2023-04-25T05:47:10.769Z,102
2023-04-25T05:48:10.924Z,102
2023-04-25T05:49:11.060Z,102
2023-04-25T05:50:10.816Z,102
2023-04-25T05:51:11.206Z,102
2023-04-25T05:52:10.402Z,102
2023-04-25T05:53:10.797Z,102
2023-04-25T05:56:10.349Z,102
2023-04-25T05:57:10.676Z,102
2023-04-25T05:58:10.853Z,102
2023-04-25T05:59:10.787Z,102
2023-04-25T06:00:10.766Z,102
2023-04-25T06:01:10.668Z,102
2023-04-25T06:02:11.226Z,102
2023-04-25T06:03:11.123Z,102
2023-04-25T06:04:11.832Z,102
2023-04-25T06:05:12.200Z,102
2023-04-25T06:07:10.289Z,101
2023-04-25T06:08:10.599Z,101
2023-04-25T06:09:12.703Z,101
2023-04-25T06:10:10.487Z,101
2023-04-25T06:11:10.634Z,101
2023-04-25T06:12:11.198Z,101
2023-04-25T06:13:10.507Z,101
2023-04-25T06:14:10.695Z,101
2023-04-25T06:15:31.459Z,101
2023-04-25T06:17:10.458Z,101
2023-04-25T06:18:11.042Z,101
2023-04-25T06:19:10.975Z,101
2023-04-25T06:20:13.540Z,101
2023-04-25T06:21:10.509Z,101
2023-04-25T06:22:10.624Z,101
2023-04-25T06:23:10.929Z,101
2023-04-25T06:24:11.008Z,101
2023-04-25T06:25:10.587Z,101
2023-04-25T06:26:10.807Z,101
2023-04-25T06:29:10.249Z,101
2023-04-25T06:30:10.748Z,101
2023-04-25T06:31:10.552Z,101
2023-04-25T06:32:10.794Z,101
2023-04-25T06:33:11.503Z,101
2023-04-25T06:34:10.491Z,101
2023-04-25T06:35:11.219Z,101
2023-04-25T06:36:10.542Z,101
2023-04-25T06:37:11.152Z,101
2023-04-25T06:38:10.410Z,101
2023-04-25T06:39:10.756Z,101
2023-04-25T06:40:11.124Z,101
2023-04-25T06:41:11.193Z,101
2023-04-25T06:46:11.150Z,101
2023-04-25T06:47:10.637Z,101
2023-04-25T06:48:10.908Z,101
2023-04-25T06:49:10.924Z,101
2023-04-25T06:50:11.209Z,101
2023-04-25T06:51:10.451Z,101
2023-04-25T06:52:10.653Z,101
2023-04-25T06:53:10.905Z,101
2023-04-25T06:54:11.333Z,101
2023-04-25T06:55:10.688Z,101
2023-04-25T06:59:10.557Z,101
2023-04-25T07:00:11.230Z,101
2023-04-25T07:01:11.357Z,101
2023-04-25T07:02:11.233Z,101
2023-04-25T07:03:10.915Z,101
2023-04-25T07:04:11.562Z,101
2023-04-25T07:07:10.827Z,106
2023-04-25T07:08:11.273Z,106
2023-04-25T07:09:10.204Z,106
2023-04-25T07:10:10.606Z,106
2023-04-25T07:11:10.647Z,106
2023-04-25T07:12:10.853Z,106
2023-04-25T07:13:11.132Z,106
2023-04-25T07:14:10.444Z,106
2023-04-25T07:15:10.789Z,106
2023-04-25T07:16:10.423Z,106
2023-04-25T07:20:11.059Z,106
2023-04-25T07:21:10.958Z,106
2023-04-25T07:22:11.361Z,106
2023-04-25T07:23:10.523Z,106
2023-04-25T07:24:10.742Z,106
2023-04-25T07:25:11.119Z,106
2023-04-25T07:26:10.646Z,106
2023-04-25T07:27:10.406Z,106
2023-04-25T07:28:10.301Z,106
2023-04-25T07:29:10.546Z,106
2023-04-25T07:30:11.050Z,106
2023-04-25T07:31:11.185Z,106
2023-04-25T07:34:10.178Z,106
2023-04-25T07:35:10.699Z,106
2023-04-25T07:36:10.512Z,106
2023-04-25T07:37:10.895Z,106
2023-04-25T07:38:11.157Z,106
2023-04-25T07:39:10.352Z,106
2023-04-25T07:40:10.735Z,106
2023-04-25T07:41:10.315Z,106
2023-04-25T07:42:10.686Z,106
2023-04-25T07:43:11.168Z,106
2023-04-25T07:44:11.038Z,106
2023-04-25T07:45:11.141Z,106
2023-04-25T07:46:10.698Z,106
2023-04-25T07:47:12.976Z,106
2023-04-25T07:48:10.811Z,106
2023-04-25T07:49:11.062Z,106
2023-04-25T07:50:10.630Z,106
2023-04-25T07:51:10.718Z,106
2023-04-25T07:52:10.921Z,106
2023-04-25T07:53:11.018Z,106
2023-04-25T07:54:10.142Z,106
2023-04-25T07:55:10.791Z,106
2023-04-25T07:56:11.142Z,106
2023-04-25T07:57:11.299Z,106
2023-04-25T08:02:10.854Z,106
2023-04-25T08:03:12.222Z,106
2023-04-25T08:04:11.186Z,106
2023-04-25T08:05:11.822Z,106
2023-04-25T08:06:16.784Z,106
2023-04-25T08:07:10.161Z,100
2023-04-25T08:08:10.905Z,100
2023-04-25T08:11:10.914Z,100
2023-04-25T08:12:11.148Z,100
2023-04-25T08:13:10.517Z,100
2023-04-25T08:14:11.184Z,100
2023-04-25T08:15:10.125Z,100
2023-04-25T08:16:10.915Z,100
2023-04-25T08:19:10.606Z,100
2023-04-25T08:20:10.719Z,100
2023-04-25T08:21:10.315Z,100
2023-04-25T08:22:10.543Z,100
2023-04-25T08:23:10.857Z,100
2023-04-25T08:24:11.414Z,100
2023-04-25T08:25:10.581Z,100
2023-04-25T08:26:10.630Z,100
2023-04-25T08:27:11.404Z,100
2023-04-25T08:28:10.474Z,100
2023-04-25T08:29:10.242Z,100
2023-04-25T08:30:10.710Z,100
2023-04-25T08:31:11.217Z,100
2023-04-25T08:32:10.391Z,100
2023-04-25T08:33:10.945Z,100
2023-04-25T08:34:11.284Z,100
2023-04-25T08:35:10.518Z,100
2023-04-25T08:36:10.601Z,100
2023-04-25T08:37:11.112Z,100
2023-04-25T08:39:10.753Z,100
2023-04-25T08:40:10.964Z,100
2023-04-25T08:45:13.405Z,100
2023-04-25T08:46:10.775Z,100
2023-04-25T08:47:11.371Z,100
2023-04-25T08:50:10.767Z,100
2023-04-25T08:52:10.930Z,100
2023-04-25T08:53:11.051Z,100
2023-04-25T08:54:37.921Z,100
2023-04-25T08:56:10.348Z,100
2023-04-25T08:57:10.891Z,100
2023-04-25T08:58:10.726Z,100
2023-04-25T08:59:10.188Z,100
2023-04-25T09:00:10.858Z,100
2023-04-25T09:04:10.864Z,100
2023-04-25T09:05:10.796Z,100
2023-04-25T09:06:10.962Z,100
2023-04-25T09:08:10.530Z,102
2023-04-25T09:09:11.821Z,102
2023-04-25T09:10:11.119Z,102
2023-04-25T09:11:10.452Z,102
2023-04-25T09:12:10.820Z,102
2023-04-25T09:13:11.029Z,102
2023-04-25T09:14:11.032Z,102
2023-04-25T09:15:10.402Z,102
2023-04-25T09:16:11.069Z,102
2023-04-25T09:17:11.670Z,102
2023-04-25T09:18:11.363Z,102
2023-04-25T09:20:10.321Z,102
2023-04-25T09:21:20.786Z,102
2023-04-25T09:23:10.876Z,102
2023-04-25T09:24:10.946Z,102
2023-04-25T09:25:11.400Z,102
2023-04-25T09:26:10.389Z,102
2023-04-25T09:27:10.820Z,102
2023-04-25T09:28:10.967Z,102
2023-04-25T09:29:11.324Z,102
2023-04-25T09:30:10.629Z,102
2023-04-25T09:31:10.360Z,102
2023-04-25T09:32:11.274Z,102
2023-04-25T09:33:10.470Z,102
2023-04-25T09:34:11.698Z,102
2023-04-25T09:37:10.708Z,102
2023-04-25T09:38:10.567Z,102
2023-04-25T09:39:11.097Z,102
2023-04-25T09:40:12.266Z,102
2023-04-25T09:41:10.288Z,102
2023-04-25T09:42:10.636Z,102
2023-04-25T09:43:10.884Z,102
2023-04-25T09:44:11.363Z,102
2023-04-25T09:45:11.253Z,102
2023-04-25T09:46:10.901Z,102
2023-04-25T09:47:10.841Z,102
2023-04-25T09:48:11.333Z,102
2023-04-25T09:49:10.340Z,102
2023-04-25T09:50:10.671Z,102
2023-04-25T09:51:11.042Z,102
2023-04-25T09:52:11.348Z,102
2023-04-25T09:53:10.629Z,102
2023-04-25T09:54:11.314Z,102
2023-04-25T09:55:10.608Z,102
2023-04-25T09:56:10.899Z,102
2023-04-25T09:57:10.968Z,102
2023-04-25T09:58:11.235Z,102
2023-04-25T09:59:11.028Z,102
2023-04-25T10:00:10.792Z,102
2023-04-25T10:01:10.595Z,102
2023-04-25T10:02:10.826Z,102
2023-04-25T10:03:11.476Z,102
2023-04-25T10:04:12.587Z,102
2023-04-25T10:05:11.987Z,102
2023-04-25T10:06:10.836Z,102
2023-04-25T10:07:10.956Z,103
2023-04-25T10:08:10.999Z,103
2023-04-25T10:09:10.513Z,103
2023-04-25T10:10:11.604Z,103
2023-04-25T10:11:11.043Z,103
2023-04-25T10:12:10.264Z,103
2023-04-25T10:13:10.527Z,103
2023-04-25T10:14:10.850Z,103
2023-04-25T10:15:11.298Z,103
2023-04-25T10:17:10.526Z,103
2023-04-25T10:18:11.122Z,103
2023-04-25T10:19:10.996Z,103
2023-04-25T10:20:10.577Z,103
2023-04-25T10:21:10.744Z,103
2023-04-25T10:22:11.132Z,103
2023-04-25T10:26:10.254Z,103
2023-04-25T10:27:10.598Z,103
2023-04-25T10:28:10.792Z,103
2023-04-25T10:29:11.080Z,103
2023-04-25T10:30:10.420Z,103
2023-04-25T10:31:11.268Z,103
2023-04-25T10:32:10.986Z,103
2023-04-25T10:33:11.075Z,103
2023-04-25T10:38:10.659Z,103
2023-04-25T10:39:10.502Z,103
2023-04-25T10:40:11.056Z,103
2023-04-25T10:41:11.168Z,103
2023-04-25T10:42:10.430Z,103
2023-04-25T10:43:10.629Z,103
2023-04-25T10:44:10.901Z,103
2023-04-25T10:45:11.224Z,103
2023-04-25T10:46:10.961Z,103
2023-04-25T10:47:11.787Z,103
2023-04-25T10:48:10.537Z,103
2023-04-25T10:49:10.560Z,103
2023-04-25T10:50:10.860Z,103
2023-04-25T10:51:11.000Z,103
2023-04-25T10:52:11.427Z,103
2023-04-25T10:53:10.454Z,103
2023-04-25T10:54:10.625Z,103
2023-04-25T10:55:11.140Z,103
2023-04-25T10:56:14.634Z,103
2023-04-25T10:57:10.573Z,103
2023-04-25T10:58:10.921Z,103
2023-04-25T10:59:11.372Z,103
2023-04-25T11:00:10.500Z,103
2023-04-25T11:01:10.920Z,103
2023-04-25T11:02:11.241Z,103
2023-04-25T11:05:10.711Z,103
2023-04-25T11:06:11.222Z,103
2023-04-25T11:09:10.775Z,102
2023-04-25T11:10:11.301Z,102
2023-04-25T11:11:10.680Z,102
2023-04-25T11:12:10.658Z,102
2023-04-25T11:13:10.968Z,102
2023-04-25T11:14:10.207Z,102
2023-04-25T11:15:10.397Z,102
2023-04-25T11:18:11.196Z,102
2023-04-25T11:19:10.876Z,102
2023-04-25T11:20:10.774Z,102
2023-04-25T11:21:10.889Z,102
2023-04-25T11:22:10.203Z,102
2023-04-25T11:23:06.163Z,102
2023-04-25T11:24:10.727Z,102
2023-04-25T11:25:11.190Z,102
2023-04-25T11:27:10.285Z,102
2023-04-25T11:28:10.734Z,102
2023-04-25T11:29:11.002Z,102
2023-04-25T11:31:10.463Z,102
2023-04-25T11:32:11.336Z,102
2023-04-25T11:33:11.132Z,102
2023-04-25T11:34:10.932Z,102
2023-04-25T11:38:10.536Z,102
2023-04-25T11:39:11.371Z,102
2023-04-25T11:40:11.183Z,102
2023-04-25T11:41:11.288Z,102
2023-04-25T11:42:18.085Z,102
2023-04-25T11:43:11.219Z,102
2023-04-25T11:44:10.796Z,102
2023-04-25T11:45:11.051Z,102
2023-04-25T11:46:10.718Z,102
2023-04-25T11:47:10.836Z,102
2023-04-25T11:48:10.978Z,102
2023-04-25T11:49:11.154Z,102
2023-04-25T11:50:10.449Z,102
2023-04-25T11:51:10.532Z,102
2023-04-25T11:52:10.876Z,102
2023-04-25T11:53:11.140Z,102
2023-04-25T11:54:10.586Z,102
2023-04-25T11:55:13.662Z,102
2023-04-25T11:56:10.589Z,102
2023-04-25T11:57:10.828Z,102
2023-04-25T11:58:10.353Z,102
2023-04-25T11:59:12.173Z,102
2023-04-25T12:02:10.838Z,102
2023-04-25T12:03:11.974Z,102
2023-04-25T12:04:11.704Z,102
2023-04-25T12:05:36.193Z,102
2023-04-25T12:07:10.982Z,104
2023-04-25T12:08:10.169Z,104
2023-04-25T12:09:10.541Z,104
2023-04-25T12:10:10.986Z,104
2023-04-25T12:11:10.718Z,104
2023-04-25T12:12:10.893Z,104
2023-04-25T12:13:12.050Z,104
2023-04-25T12:14:11.153Z,104
2023-04-25T12:15:10.530Z,104
2023-04-25T12:16:10.994Z,104
2023-04-25T12:19:10.617Z,104
2023-04-25T12:20:10.990Z,104
2023-04-25T12:21:10.203Z,104
2023-04-25T12:22:10.977Z,104
2023-04-25T12:23:11.109Z,104
2023-04-25T12:24:10.460Z,104
2023-04-25T12:25:10.790Z,104
2023-04-25T12:26:10.841Z,104
2023-04-25T12:27:11.827Z,104
2023-04-25T12:28:10.391Z,104
2023-04-25T12:29:10.404Z,104
2023-04-25T12:30:10.524Z,104
2023-04-25T12:31:11.525Z,104
2023-04-25T12:36:12.848Z,104
2023-04-25T12:37:10.438Z,104
2023-04-25T12:41:11.013Z,104
2023-04-25T12:42:13.922Z,104
2023-04-25T12:47:11.407Z,104
2023-04-25T12:48:10.967Z,104
2023-04-25T12:49:26.302Z,104
2023-04-25T12:51:11.228Z,104
2023-04-25T12:55:10.362Z,104
2023-04-25T12:56:10.716Z,104
2023-04-25T12:57:10.983Z,104
2023-04-25T12:58:10.102Z,104
2023-04-25T12:59:10.784Z,104
2023-04-25T13:00:10.785Z,104
2023-04-25T13:01:11.211Z,104
2023-04-25T13:02:11.256Z,104
2023-04-25T13:05:11.099Z,104
2023-04-25T13:06:10.590Z,104
2023-04-25T13:07:10.898Z,105
2023-04-25T13:08:10.947Z,105
2023-04-25T13:09:10.412Z,105
2023-04-25T13:10:10.524Z,105
2023-04-25T13:11:10.759Z,105
2023-04-25T13:12:11.079Z,105
2023-04-25T13:13:10.398Z,105
2023-04-25T13:14:10.252Z,105
2023-04-25T13:15:10.905Z,105
2023-04-25T13:16:11.687Z,105
2023-04-25T13:19:10.817Z,105
2023-04-25T13:20:11.191Z,105
2023-04-25T13:21:11.152Z,105
2023-04-25T13:24:10.745Z,105
2023-04-25T13:25:11.117Z,105
2023-04-25T13:26:11.249Z,105
2023-04-25T13:27:10.263Z,105
2023-04-25T13:28:10.977Z,105
2023-04-25T13:29:11.274Z,105
2023-04-25T13:30:10.436Z,105
2023-04-25T13:31:10.915Z,105
2023-04-25T13:32:11.379Z,105
2023-04-25T13:33:10.583Z,105
2023-04-25T13:34:10.768Z,105
2023-04-25T13:35:15.633Z,105
2023-04-25T13:36:10.978Z,105
2023-04-25T13:37:10.651Z,105
2023-04-25T13:38:11.294Z,105
2023-04-25T13:39:10.276Z,105
2023-04-25T13:40:11.025Z,105
2023-04-25T13:41:11.001Z,105
2023-04-25T13:42:11.118Z,105
2023-04-25T13:43:10.493Z,105
2023-04-25T13:44:10.662Z,105
2023-04-25T13:45:11.170Z,105
2023-04-25T13:46:25.182Z,105
2023-04-25T13:47:10.479Z,105
2023-04-25T13:48:11.095Z,105
2023-04-25T13:49:20.305Z,105
2023-04-25T13:51:10.582Z,105
2023-04-25T13:52:10.840Z,105
2023-04-25T13:53:11.081Z,105
2023-04-25T13:54:10.406Z,105
2023-04-25T13:55:10.651Z,105
2023-04-25T13:56:11.336Z,105
2023-04-25T13:57:10.636Z,105
2023-04-25T13:58:11.485Z,105
2023-04-25T14:00:10.432Z,105
2023-04-25T14:01:11.080Z,105
2023-04-25T14:02:10.451Z,105
2023-04-25T14:03:11.713Z,105
2023-04-25T14:06:10.627Z,105
2023-04-25T14:07:10.743Z,100
2023-04-25T14:08:11.132Z,100
2023-04-25T14:09:10.414Z,100
2023-04-25T14:10:10.669Z,100
2023-04-25T14:11:10.822Z,100
2023-04-25T14:12:11.036Z,100
2023-04-25T14:13:12.762Z,100
2023-04-25T14:14:10.401Z,100
2023-04-25T14:15:11.160Z,100
2023-04-25T14:16:11.440Z,100
2023-04-25T14:17:10.454Z,100
2023-04-25T14:18:11.136Z,100
2023-04-25T14:19:10.811Z,100
2023-04-25T14:20:10.360Z,100
2023-04-25T14:21:10.391Z,100
2023-04-25T14:22:10.672Z,100
2023-04-25T14:23:10.916Z,100
2023-04-25T14:24:10.985Z,100
2023-04-25T14:25:11.292Z,100
2023-04-25T14:30:10.421Z,100
2023-04-25T14:31:10.928Z,100
2023-04-25T14:32:11.190Z,100
2023-04-25T14:33:11.540Z,100
2023-04-25T14:34:10.484Z,100
2023-04-25T14:35:10.871Z,100
2023-04-25T14:36:10.166Z,100
2023-04-25T14:37:10.511Z,100
2023-04-25T14:38:09.343Z,100
2023-04-25T14:39:10.861Z,100
2023-04-25T14:40:11.156Z,100
2023-04-25T14:41:11.191Z,100
2023-04-25T14:42:10.502Z,100
2023-04-25T14:43:10.737Z,100
2023-04-25T14:44:09.517Z,100
2023-04-25T14:45:10.806Z,100
2023-04-25T14:47:10.002Z,100
2023-04-25T14:48:11.065Z,100
2023-04-25T14:49:10.897Z,100
2023-04-25T14:50:10.555Z,100
2023-04-25T14:51:11.303Z,100
2023-04-25T14:56:10.573Z,100
2023-04-25T14:57:10.787Z,100
2023-04-25T14:58:11.125Z,100
2023-04-25T14:59:10.127Z,100
2023-04-25T15:00:10.817Z,100
2023-04-25T15:01:10.500Z,100
2023-04-25T15:02:11.026Z,100
2023-04-25T15:03:11.554Z,100
2023-04-25T15:04:10.896Z,100
2023-04-25T15:05:11.396Z,100
2023-04-25T15:06:10.274Z,100
2023-04-25T15:07:10.602Z,104
2023-04-25T15:08:10.689Z,104
2023-04-25T15:09:11.015Z,104
2023-04-25T15:10:11.127Z,104
2023-04-25T15:11:10.477Z,104
2023-04-25T15:12:11.027Z,104
2023-04-25T15:16:10.928Z,104
2023-04-25T15:17:11.524Z,104
2023-04-25T15:18:10.675Z,104
2023-04-25T15:19:10.822Z,104
2023-04-25T15:20:10.614Z,104
2023-04-25T15:21:10.348Z,104
2023-04-25T15:22:10.701Z,104
2023-04-25T15:23:10.700Z,104
2023-04-25T15:25:09.681Z,104
2023-04-25T15:26:10.965Z,104
2023-04-25T15:27:10.248Z,104
2023-04-25T15:28:10.496Z,104
2023-04-25T15:29:12.958Z,104
2023-04-25T15:30:10.703Z,104
2023-04-25T15:32:11.112Z,104
2023-04-25T15:33:10.593Z,104
2023-04-25T15:34:10.434Z,104
2023-04-25T15:35:10.803Z,104
2023-04-25T15:36:10.690Z,104
2023-04-25T15:37:10.927Z,104
2023-04-25T15:38:11.246Z,104
2023-04-25T15:39:10.400Z,104
2023-04-25T15:40:10.882Z,104
2023-04-25T15:41:13.154Z,104
2023-04-25T15:42:10.876Z,104
2023-04-25T15:43:11.319Z,104
2023-04-25T15:47:10.995Z,104
2023-04-25T15:48:10.483Z,104
2023-04-25T15:49:10.653Z,104
2023-04-25T15:50:10.794Z,104
2023-04-25T15:51:09.959Z,104
2023-04-25T15:52:10.503Z,104
2023-04-25T15:53:13.437Z,104
2023-04-25T15:54:10.203Z,104
2023-04-25T15:55:10.632Z,104
2023-04-25T15:57:10.442Z,104
2023-04-25T15:58:13.611Z,104
2023-04-25T15:59:10.168Z,104
2023-04-25T16:00:10.415Z,104
2023-04-25T16:01:10.800Z,104
2023-04-25T16:02:10.836Z,104
2023-04-25T16:03:11.416Z,104
2023-04-25T16:04:11.966Z,104
2023-04-25T16:05:11.178Z,104
2023-04-25T16:06:10.315Z,104
2023-04-25T16:07:10.644Z,105
2023-04-25T16:08:10.928Z,105
2023-04-25T16:09:11.105Z,105
2023-04-25T16:10:10.419Z,105
2023-04-25T16:11:10.642Z,105
2023-04-25T16:12:11.066Z,105
2023-04-25T16:13:11.315Z,105
2023-04-25T16:16:11.034Z,105
2023-04-25T16:19:10.840Z,105
2023-04-25T16:20:10.639Z,105
2023-04-25T16:21:10.401Z,105
2023-04-25T16:22:10.602Z,105
2023-04-25T16:23:10.618Z,105
2023-04-25T16:24:10.939Z,105
2023-04-25T16:25:11.298Z,105
2023-04-25T16:26:10.764Z,105
2023-04-25T16:27:11.185Z,105
2023-04-25T16:28:10.388Z,105
2023-04-25T16:29:10.780Z,105
2023-04-25T16:30:11.078Z,105
2023-04-25T16:31:10.693Z,105
2023-04-25T16:34:10.781Z,105
2023-04-25T16:35:12.103Z,105
2023-04-25T16:36:10.457Z,105
2023-04-25T16:37:11.105Z,105
2023-04-25T16:38:11.110Z,105
2023-04-25T16:39:11.431Z,105
2023-04-25T16:40:10.389Z,105
2023-04-25T16:41:11.023Z,105
2023-04-25T16:42:10.230Z,105
2023-04-25T16:43:10.905Z,105
2023-04-25T16:44:10.749Z,105
2023-04-25T16:45:11.265Z,105
2023-04-25T16:47:11.609Z,105
2023-04-25T16:48:10.539Z,105
2023-04-25T16:49:10.753Z,105
2023-04-25T16:50:11.361Z,105